Bickleton, Washington
Current Conditions -  °F | °C
As of 1:53 PM on Monday 20 Oct 2014 (Local Time) from KYKM Reporting Station
Broken Clouds Broken Clouds  
Wind Chill: 58°   Ceiling: 6500
Heat Index: 58°   Visibility: 10mi
Dew Point: 52°   Wind: 5mph
Humidity: 81%   Direction: 270°W
Pressure: 29.78"   Gusts: NA
Location:  46°N, 120.3°W
Report Text: KYKM 202053Z 27004KT 10SM BKN065 14/11 A2978 RMK AO2 SLP084 T01440111 53005
Loading
Personal Weather Stations






























Interactive Weather Map
Tropical Storm Tracking
New forecast layout! Learn more

10-Day Weather Forecast

Advertisements
Track Severe Weather on mobile